createdAt,value
2024-05-09T00:01:50.088Z,14.15
2024-05-09T00:06:51.875Z,14.06
2024-05-09T00:11:53.550Z,13.99
2024-05-09T00:16:55.116Z,13.87
2024-05-09T00:21:56.632Z,13.74
2024-05-09T00:26:58.085Z,13.65
2024-05-09T00:31:59.692Z,13.59
2024-05-09T00:37:01.285Z,13.51
2024-05-09T00:42:03.027Z,13.42
2024-05-09T00:47:04.940Z,13.37
2024-05-09T00:52:07.074Z,13.32
2024-05-09T00:57:09.367Z,13.26
2024-05-09T01:02:11.573Z,13.22
2024-05-09T01:07:13.239Z,13.12
2024-05-09T01:12:15.411Z,13.02
2024-05-09T01:17:17.415Z,12.98
2024-05-09T01:22:19.156Z,12.91
2024-05-09T01:27:21.186Z,12.82
2024-05-09T01:32:22.853Z,12.73
2024-05-09T01:37:24.471Z,12.65
2024-05-09T01:42:25.913Z,12.55
2024-05-09T01:47:27.853Z,12.51
2024-05-09T01:52:29.667Z,12.42
2024-05-09T01:57:31.242Z,12.32
2024-05-09T02:02:32.778Z,12.21
2024-05-09T02:07:35.534Z,12.14
2024-05-09T02:12:37.204Z,12.11
2024-05-09T02:17:38.839Z,12.05
2024-05-09T02:22:40.459Z,11.99
2024-05-09T02:27:42.079Z,11.93
2024-05-09T02:32:44.021Z,11.88
2024-05-09T02:37:45.502Z,11.86
2024-05-09T02:42:47.091Z,11.83
2024-05-09T02:47:48.977Z,11.79
2024-05-09T02:52:50.837Z,11.77
2024-05-09T02:57:52.294Z,11.71
2024-05-09T03:02:53.873Z,11.59
2024-05-09T03:07:55.560Z,11.50
2024-05-09T03:12:57.243Z,11.43
2024-05-09T03:17:59.978Z,11.42
2024-05-09T03:23:02.123Z,11.42
2024-05-09T03:28:04.261Z,11.43
2024-05-09T03:33:10.690Z,11.39
2024-05-09T03:38:12.617Z,11.35
2024-05-09T03:43:15.715Z,11.32
2024-05-09T03:48:17.709Z,11.35
2024-05-09T03:53:19.514Z,11.40
2024-05-09T03:58:21.091Z,11.45
2024-05-09T04:03:22.803Z,11.46
2024-05-09T04:08:24.616Z,11.50
2024-05-09T04:13:26.101Z,11.56
2024-05-09T04:18:28.014Z,11.62
2024-05-09T04:23:30.139Z,11.67
2024-05-09T04:28:31.653Z,11.75
2024-05-09T04:33:33.658Z,11.84
2024-05-09T04:38:35.463Z,11.91
2024-05-09T04:43:36.961Z,12.00
2024-05-09T04:48:38.470Z,12.11
2024-05-09T04:53:40.242Z,12.22
2024-05-09T04:58:41.779Z,12.28
2024-05-09T05:03:43.428Z,12.36
2024-05-09T05:08:45.066Z,12.42
2024-05-09T05:13:46.693Z,12.46
2024-05-09T05:18:48.325Z,12.53
2024-05-09T05:23:49.940Z,12.61
2024-05-09T05:28:51.766Z,12.70
2024-05-09T05:33:53.363Z,12.79
2024-05-09T05:38:55.015Z,12.88
2024-05-09T05:43:56.470Z,12.99
2024-05-09T05:48:58.137Z,13.10
2024-05-09T05:53:59.673Z,13.20
2024-05-09T05:59:01.148Z,13.33
2024-05-09T06:04:02.846Z,13.44
2024-05-09T06:09:04.330Z,13.57
2024-05-09T06:14:05.913Z,13.68
2024-05-09T06:19:07.391Z,13.76
2024-05-09T06:24:08.938Z,13.86
2024-05-09T06:29:10.490Z,13.98
2024-05-09T06:34:12.572Z,14.09
2024-05-09T06:39:14.276Z,14.22
2024-05-09T06:44:15.855Z,14.33
2024-05-09T06:49:17.710Z,14.40
2024-05-09T06:54:19.526Z,14.46
2024-05-09T06:59:20.982Z,14.52
2024-05-09T07:04:22.629Z,14.64
2024-05-09T07:09:24.237Z,14.76
2024-05-09T07:14:26.128Z,14.88
2024-05-09T07:19:27.788Z,14.98
2024-05-09T07:24:29.306Z,15.02
2024-05-09T07:29:30.802Z,15.07
2024-05-09T07:34:32.834Z,15.13
2024-05-09T07:39:34.597Z,15.20
2024-05-09T07:44:36.242Z,15.27
2024-05-09T07:54:44.763Z,15.32
2024-05-09T07:59:46.232Z,15.34
2024-05-09T08:04:47.723Z,15.39
2024-05-09T08:09:49.408Z,15.43
2024-05-09T08:14:52.917Z,15.47
2024-05-09T08:19:55.994Z,15.53
2024-05-09T08:24:58.443Z,15.62
2024-05-09T08:30:00.346Z,15.76
2024-05-09T08:35:02.279Z,15.98
2024-05-09T08:40:06.541Z,16.27
2024-05-09T08:45:13.431Z,16.61
2024-05-09T08:50:28.389Z,16.96
2024-05-09T08:55:41.542Z,17.35
2024-05-09T09:00:46.469Z,17.70
2024-05-09T09:05:58.350Z,17.97
2024-05-09T09:11:00.102Z,18.26
2024-05-09T09:16:02.679Z,18.63
2024-05-09T09:21:05.303Z,18.95
2024-05-09T09:26:06.718Z,19.23
2024-05-09T09:31:08.262Z,19.52
2024-05-09T09:36:14.050Z,19.77
2024-05-09T09:41:18.139Z,20.00
2024-05-09T09:46:20.359Z,20.27
2024-05-09T09:51:22.563Z,20.57
2024-05-09T09:56:26.344Z,20.84
2024-05-09T10:01:28.081Z,21.16
2024-05-09T10:06:31.309Z,21.49
2024-05-09T10:11:39.794Z,21.66
2024-05-09T10:16:47.213Z,21.89
2024-05-09T10:21:49.138Z,22.08
2024-05-09T10:26:53.831Z,22.21
2024-05-09T10:31:59.645Z,22.40
2024-05-09T10:37:04.160Z,22.53
2024-05-09T10:42:09.892Z,22.68
2024-05-09T10:47:11.605Z,22.92
2024-05-09T10:52:13.551Z,23.06
2024-05-09T10:57:15.452Z,23.07
2024-05-09T11:02:18.564Z,23.28
2024-05-09T11:07:21.408Z,23.57
2024-05-09T11:12:24.766Z,23.82
2024-05-09T11:17:26.763Z,24.05
2024-05-09T11:22:32.915Z,24.25
2024-05-09T11:27:35.512Z,24.41
2024-05-09T11:32:37.482Z,24.57
2024-05-09T11:37:40.915Z,24.73
2024-05-09T11:42:42.560Z,24.85
2024-05-09T11:47:44.036Z,24.93
2024-05-09T11:52:45.678Z,25.13
2024-05-09T11:57:47.147Z,25.31
2024-05-09T12:02:48.723Z,25.46
2024-05-09T12:07:53.647Z,25.56
2024-05-09T12:12:55.540Z,25.70
2024-05-09T12:17:59.926Z,25.74
2024-05-09T12:23:03.563Z,25.80
2024-05-09T12:28:06.071Z,26.07
2024-05-09T12:33:09.645Z,26.22
2024-05-09T12:38:11.351Z,26.30
2024-05-09T12:43:12.845Z,26.41
2024-05-09T12:48:17.178Z,26.56
2024-05-09T12:53:18.670Z,26.81
2024-05-09T12:58:22.748Z,26.88
2024-05-09T13:03:24.464Z,26.83
2024-05-09T13:08:26.684Z,26.94
2024-05-09T13:13:29.127Z,27.16
2024-05-09T13:18:30.870Z,27.26
2024-05-09T13:23:32.369Z,27.35
2024-05-09T13:28:34.466Z,27.27
2024-05-09T13:33:36.029Z,27.12
2024-05-09T13:38:38.285Z,27.17
2024-05-09T13:43:40.207Z,27.22
2024-05-09T13:48:42.466Z,27.20
2024-05-09T13:53:43.971Z,27.22
2024-05-09T13:58:46.384Z,27.22
2024-05-09T14:03:47.949Z,27.20
2024-05-09T14:08:49.730Z,27.16
2024-05-09T14:13:51.152Z,27.11
2024-05-09T14:18:53.113Z,27.18
2024-05-09T14:23:54.832Z,27.32
2024-05-09T14:28:56.694Z,27.41
2024-05-09T14:33:58.587Z,27.42
2024-05-09T14:39:00.447Z,27.28
2024-05-09T14:44:02.297Z,27.15
2024-05-09T14:49:04.519Z,27.18
2024-05-09T14:54:06.246Z,27.33
2024-05-09T14:59:08.897Z,27.38
2024-05-09T15:04:10.465Z,27.24
2024-05-09T15:09:11.947Z,27.09
2024-05-09T15:14:13.904Z,27.18
2024-05-09T15:19:15.645Z,27.08
2024-05-09T15:24:17.505Z,26.91
2024-05-09T15:29:19.404Z,26.83
2024-05-09T15:34:20.972Z,26.63
2024-05-09T15:39:24.800Z,26.51
2024-05-09T15:44:26.395Z,26.47
2024-05-09T15:49:27.955Z,26.27
2024-05-09T15:54:29.659Z,26.02
2024-05-09T15:59:31.216Z,25.86
2024-05-09T16:04:32.983Z,25.79
2024-05-09T16:09:34.809Z,25.78
2024-05-09T16:14:36.353Z,25.85
2024-05-09T16:19:37.984Z,25.78
2024-05-09T16:24:39.473Z,25.55
2024-05-09T16:29:40.976Z,25.27
2024-05-09T16:34:42.459Z,25.16
2024-05-09T16:39:43.965Z,25.03
2024-05-09T16:44:45.374Z,24.84
2024-05-09T16:49:46.742Z,24.60
2024-05-09T16:54:48.219Z,24.40
2024-05-09T16:59:49.826Z,24.21
2024-05-09T17:04:51.441Z,24.01
2024-05-09T17:09:52.948Z,23.77
2024-05-09T17:14:54.603Z,23.47
2024-05-09T17:19:56.002Z,23.14
2024-05-09T17:24:57.994Z,22.86
2024-05-09T17:30:00.015Z,22.60
2024-05-09T17:35:01.650Z,22.27
2024-05-09T17:40:06.780Z,21.94
2024-05-09T17:45:13.159Z,21.76
2024-05-09T17:50:21.044Z,21.49
2024-05-09T17:55:29.201Z,21.18
2024-05-09T18:00:37.953Z,20.91
2024-05-09T18:05:43.953Z,20.67
2024-05-09T18:10:46.365Z,20.48
2024-05-09T18:15:48.114Z,20.25
2024-05-09T18:20:49.591Z,20.05
2024-05-09T18:25:54.260Z,19.91
2024-05-09T18:30:55.774Z,19.74
2024-05-09T18:35:57.487Z,19.57
2024-05-09T18:40:59.234Z,19.42
2024-05-09T18:46:02.902Z,19.34
2024-05-09T18:51:05.419Z,19.20
2024-05-09T18:56:08.025Z,19.03
2024-05-09T19:01:11.174Z,18.86
2024-05-09T19:06:12.768Z,18.74
2024-05-09T19:11:14.212Z,18.62
2024-05-09T19:16:15.963Z,18.44
2024-05-09T19:21:17.440Z,18.29
2024-05-09T19:26:18.846Z,18.15
2024-05-09T19:31:20.425Z,18.01
2024-05-09T19:36:22.109Z,17.85
2024-05-09T19:41:23.729Z,17.78
2024-05-09T19:46:25.761Z,17.68
2024-05-09T19:51:27.364Z,17.54
2024-05-09T19:56:30.243Z,17.38
2024-05-09T20:01:31.800Z,17.26
2024-05-09T20:06:33.735Z,17.20
2024-05-09T20:11:37.751Z,17.11
2024-05-09T20:16:39.309Z,16.98
2024-05-09T20:21:43.883Z,16.81
2024-05-09T20:26:45.436Z,16.70
2024-05-09T20:31:47.596Z,16.62
2024-05-09T20:36:49.165Z,16.57
2024-05-09T20:41:50.759Z,16.47
2024-05-09T20:46:52.166Z,16.33
2024-05-09T20:51:53.652Z,16.16
2024-05-09T20:56:55.115Z,16.04
2024-05-09T21:01:56.865Z,15.96
2024-05-09T21:07:01.203Z,15.91
2024-05-09T21:12:03.231Z,15.78
2024-05-09T21:17:04.952Z,15.69
2024-05-09T21:22:06.636Z,15.67
2024-05-09T21:27:08.253Z,15.56
2024-05-09T21:32:09.728Z,15.44
2024-05-09T21:37:11.336Z,15.32
2024-05-09T21:42:16.023Z,15.24
2024-05-09T21:47:17.551Z,15.12
2024-05-09T21:52:19.200Z,15.05
2024-05-09T21:57:21.810Z,15.04
2024-05-09T22:02:23.329Z,14.98
2024-05-09T22:07:25.124Z,14.92
2024-05-09T22:12:26.864Z,14.83
2024-05-09T22:17:28.452Z,14.72
2024-05-09T22:22:30.216Z,14.59
2024-05-09T22:27:31.965Z,14.40
2024-05-09T22:32:33.754Z,14.23
2024-05-09T22:37:35.420Z,14.11
2024-05-09T22:42:36.901Z,14.00
2024-05-09T22:47:38.390Z,13.92
2024-05-09T22:52:39.932Z,13.83
2024-05-09T22:57:42.792Z,13.76
2024-05-09T23:02:44.261Z,13.80
2024-05-09T23:07:46.210Z,13.70
2024-05-09T23:12:47.713Z,13.56
2024-05-09T23:17:49.340Z,13.51
2024-05-09T23:22:50.870Z,13.44
2024-05-09T23:27:52.742Z,13.36
2024-05-09T23:32:54.398Z,13.27
2024-05-09T23:37:55.895Z,13.21
2024-05-09T23:42:57.484Z,13.13
2024-05-09T23:47:59.683Z,13.08
2024-05-09T23:53:01.296Z,13.01
2024-05-09T23:58:03.019Z,12.93
